YBWT weather

Bowthorn Airport
Queensland, Australia

Public forecast

Using degrees Celsius for public forecast. Weather courtesy of forecast.io.

METAR (pilot weather report)

Closest report is Normanton Airport, 161.5 nm (299.0 km) E. Retrieved 2019/04/22 21:00 UTC (49 minutes ago):

YNTN 222100Z AUTO 17007KT 9999 // NCD 25/16 Q1012

TAF (pilot weather forecast)

Closest forecast is Tennant Creek Airport, 250.4 nm (463.8 km) WSW. Retrieved 2019/04/22 20:03 UTC (2 hours ago):

TAF TAF YTNK 221807Z 2220/2308 14013KT CAVOK FM222300 13017G27KT CAVOK FM230200 13010KT CAVOK